Latest Weather Observations for Hartz Mountains

IDT60801

Issued at 2:32 pm EST Thursday 24 August 2017 (issued every 30 minutes, with the page automatically refreshed every 10 minutes)

About weather observations | Map of weather stations | Latest weather observations for TAS | Other Formats
Station Details ID: 094191 Name: HARTZ MOUNTAIN (KEOGHS PIMPLE) Lat: -43.20 Lon: 146.77 Height: 831.0 m
Data from the previous 72 hours. | See also: Recent months at Hartz Mountains
Date/Time
EST
Temp
°C
App
Temp
°C
Dew
Point
°C
Rel
Hum
%
Delta-T
°C
Wind Press
QNH
hPa
Press
MSL
hPa
Rain since
9am
mm
Dir  Spd
km/h
Gust
km/h
Spd
kts
Gust
kts
24/02:30pm 2.8 -4.4 0.9 87 0.8 WSW 28 41 15 22 - - 0.0
24/02:00pm 2.9 -3.0 1.7 92 0.5 WSW 22 32 12 17 - - 0.0
24/01:30pm 2.6 -4.1 1.6 93 0.4 WSW 26 35 14 19 - - 0.0
24/01:00pm 2.8 -4.9 2.2 96 0.2 WSW 32 41 17 22 - - 0.0
24/12:30pm 3.4 -2.0 2.2 92 0.5 WSW 20 28 11 15 - - 0.0
24/12:00pm 4.0 -2.1 3.0 93 0.4 WSW 24 39 13 21 - - 0.0
24/11:30am 3.6 -2.1 2.7 94 0.4 WSW 22 35 12 19 - - 0.0
24/11:00am 3.5 -1.6 3.2 98 0.1 WSW 19 32 10 17 - - 0.0
24/10:30am 2.9 -1.9 2.8 99 0.0 W 17 28 9 15 - - 0.0
24/10:00am 2.3 -2.2 2.0 98 0.1 WNW 15 28 8 15 - - 0.0
24/09:30am 2.0 -3.9 1.9 99 0.0 W 22 32 12 17 - - 0.0
24/09:00am 1.7 -4.6 1.4 98 0.1 W 24 41 13 22 - - 7.4
24/08:30am 1.6 -6.5 1.2 97 0.2 WSW 33 46 18 25 - - 7.4
24/08:00am 1.5 -7.3 1.1 97 0.2 W 37 46 20 25 - - 7.4
24/07:30am 1.1 -9.5 0.5 96 0.2 W 46 63 25 34 - - 7.0
24/07:00am 0.6 -9.1 0.2 97 0.2 W 41 54 22 29 - - 7.0
24/06:30am 0.5 -9.2 0.2 98 0.1 W 41 54 22 29 - - 7.0
24/06:00am 0.6 -9.6 -0.1 95 0.3 W 43 52 23 28 - - 7.0
24/05:51am 0.6 -9.6 -0.1 95 0.3 W 43 61 23 33 - - 7.0
24/05:30am 0.4 -10.3 0.3 99 0.0 W 46 61 25 33 - - 7.0
24/05:00am 0.3 -9.8 0.3 100 0.0 WSW 43 52 23 28 - - 7.0
24/04:30am 0.2 -7.8 0.1 99 0.0 W 32 46 17 25 - - 7.0
24/04:00am 0.2 -6.3 0.1 99 0.0 W 24 33 13 18 - - 7.0
24/03:30am 0.1 -6.1 -0.2 98 0.1 W 22 33 12 18 - - 7.0
24/03:00am 0.1 -5.7 -0.2 98 0.1 W 20 32 11 17 - - 7.0
24/02:30am 0.0 -5.8 -0.3 98 0.1 W 20 30 11 16 - - 7.0
24/02:00am 0.0 -5.8 -0.3 98 0.1 W 20 30 11 16 - - 7.0
24/01:30am 0.0 -5.8 -0.4 97 0.2 W 20 32 11 17 - - 7.0
24/01:00am 0.1 -5.2 -0.5 96 0.2 W 17 26 9 14 - - 7.0
24/12:30am -0.1 -4.7 -0.7 96 0.2 W 13 20 7 11 - - 7.0
24/12:00am 0.1 -5.8 -0.7 94 0.3 WSW 20 26 11 14 - - 7.0
 
Date/Time
EST
Temp
°C
App
Temp
°C
Dew
Point
°C
Rel
Hum
%
Delta-T
°C
Wind Press
QNH
hPa
Press
MSL
hPa
Rain since
9am
mm
Dir  Spd
km/h
Gust
km/h
Spd
kts
Gust
kts
23/11:30pm 0.0 -6.3 -0.7 95 0.3 WSW 22 30 12 16 - - 7.0
23/11:00pm -0.2 -6.9 -1.0 94 0.3 WSW 24 32 13 17 - - 7.0
23/10:30pm -0.2 -7.2 -0.8 96 0.2 WSW 26 35 14 19 - - 7.0
23/10:00pm -0.2 -9.3 -0.9 95 0.3 WSW 37 44 20 24 - - 7.0
23/09:30pm -0.1 -10.0 -0.7 96 0.2 WSW 41 50 22 27 - - 7.0
23/09:00pm -0.2 -8.3 -0.5 98 0.1 WSW 32 43 17 23 - - 7.0
23/08:30pm 0.0 -8.1 -0.4 97 0.2 WSW 32 39 17 21 - - 7.0
23/08:00pm -0.1 -8.3 -0.7 96 0.2 WSW 32 44 17 24 - - 7.0
23/07:30pm 0.0 -8.7 -0.6 96 0.2 WSW 35 52 19 28 - - 7.0
23/07:00pm 0.1 -9.7 -0.2 98 0.1 WSW 41 50 22 27 - - 7.0
23/06:30pm 0.1 -8.9 -0.2 98 0.1 WSW 37 48 20 26 - - 7.0
23/06:02pm 0.4 -8.6 0.3 99 0.0 SW 37 56 20 30 - - 7.0
23/06:00pm 0.4 -8.2 0.3 99 0.0 SW 35 48 19 26 - - 7.0
23/05:30pm 1.0 -9.0 0.7 98 0.1 SW 43 56 23 30 - - 6.8
23/05:00pm 1.2 -9.0 1.1 99 0.0 SW 44 59 24 32 - - 6.8
23/04:32pm 2.1 -6.3 1.8 98 0.1 WSW 35 56 19 30 - - 6.8
23/04:30pm 2.6 -5.6 2.5 99 0.0 WSW 35 52 19 28 - - 6.8
23/04:00pm 3.1 -4.1 2.8 98 0.1 WSW 30 50 16 27 - - 6.8
23/03:58pm 3.1 -3.8 2.8 98 0.1 WSW 28 46 15 25 - - 6.8
23/03:30pm 3.0 -2.7 2.6 97 0.2 W 22 33 12 18 - - 6.4
23/03:00pm 3.6 -2.0 3.2 97 0.2 W 22 32 12 17 - - 5.8
23/02:30pm 4.3 -0.4 3.4 94 0.4 NW 17 24 9 13 - - 5.6
23/02:00pm 5.7 1.3 4.8 94 0.4 WNW 17 24 9 13 - - 5.6
23/01:30pm 4.1 -0.5 3.7 97 0.2 WNW 17 28 9 15 - - 5.6
23/01:00pm 4.1 1.5 4.0 99 0.0 NW 7 13 4 7 - - 5.6
23/12:30pm 3.0 1.1 3.0 100 0.0 NNE 2 6 1 3 - - 5.6
23/12:00pm 1.8 0.1 1.8 100 0.0 CALM 0 0 0 0 - - 5.6
23/11:30am 1.0 -2.2 1.0 100 0.0 N 7 9 4 5 - - 4.6
23/11:00am 0.4 -1.5 0.4 100 0.0 CALM 0 0 0 0 - - 3.2
23/10:30am 0.2 -3.5 0.2 100 0.0 SSE 9 17 5 9 - - 2.4
23/10:00am 0.3 -3.4 0.2 99 0.0 E 9 11 5 6 - - 2.0
23/09:30am 0.7 -3.3 0.7 100 0.0 SE 11 15 6 8 - - 1.2
23/09:00am 0.7 -2.9 0.6 99 0.0 SSE 9 13 5 7 - - 10.8
23/08:30am 1.0 -2.6 0.9 99 0.0 SSE 9 13 5 7 - - 9.4
23/08:00am 1.8 -1.6 1.7 99 0.0 ESE 9 15 5 8 - - 8.4
23/07:30am 2.0 -1.8 1.9 99 0.0 SE 11 15 6 8 - - 7.4
23/07:00am 2.2 -1.2 2.1 99 0.0 E 9 13 5 7 - - 7.0
23/06:30am 2.2 -0.8 2.1 99 0.0 ESE 7 11 4 6 - - 6.6
23/06:00am 2.2 -1.2 2.1 99 0.0 E 9 11 5 6 - - 6.4
23/05:30am 2.0 -1.0 1.9 99 0.0 ENE 7 9 4 5 - - 6.4
23/05:00am 1.9 -0.9 1.8 99 0.0 E 6 9 3 5 - - 6.4
23/04:30am 1.8 -0.3 1.7 99 0.0 SW 2 6 1 3 - - 6.4
23/04:00am 1.9 -0.9 1.8 99 0.0 SSW 6 9 3 5 - - 6.4
23/03:30am 1.9 -2.3 1.8 99 0.0 SSW 13 17 7 9 - - 6.4
23/03:00am 2.0 -2.2 1.9 99 0.0 WSW 13 17 7 9 - - 6.4
23/02:30am 2.0 -3.3 1.9 99 0.0 WSW 19 24 10 13 - - 6.4
23/02:00am 2.3 -3.6 2.0 98 0.1 WSW 22 28 12 15 - - 6.4
23/01:30am 2.5 -2.9 2.2 98 0.1 WSW 20 30 11 16 - - 6.2
23/01:00am 3.2 -2.1 2.9 98 0.1 WSW 20 30 11 16 - - 5.6
23/12:30am 3.4 -2.3 3.1 98 0.1 WNW 22 35 12 19 - - 4.8
23/12:00am 3.3 -3.1 3.0 98 0.1 W 26 43 14 23 - - 4.8
 
Date/Time
EST
Temp
°C
App
Temp
°C
Dew
Point
°C
Rel
Hum
%
Delta-T
°C
Wind Press
QNH
hPa
Press
MSL
hPa
Rain since
9am
mm
Dir  Spd
km/h
Gust
km/h
Spd
kts
Gust
kts
22/11:30pm 3.4 -4.2 3.1 98 0.1 WSW 32 46 17 25 - - 4.0
22/11:27pm 3.4 -4.2 3.1 98 0.1 WSW 32 46 17 25 - - 4.0
22/11:00pm 3.1 -5.5 2.7 97 0.2 SW 37 48 20 26 - - 3.2
22/10:30pm 3.9 -2.8 3.6 98 0.1 WSW 28 46 15 25 - - 2.4
22/10:00pm 4.8 -1.3 4.7 99 0.0 NW 26 39 14 21 - - 0.6
22/09:30pm 4.7 -1.1 4.6 99 0.0 NW 24 41 13 22 - - 0.6
22/09:00pm 4.6 -2.0 4.3 98 0.1 WNW 28 39 15 21 - - 0.6
22/08:30pm 4.6 -1.6 4.3 98 0.1 NW 26 37 14 20 - - 0.4
22/08:00pm 4.6 -1.2 4.2 97 0.2 WNW 24 35 13 19 - - 0.0
22/07:30pm 4.6 -1.7 4.0 96 0.3 NW 26 37 14 20 - - 0.0
22/07:00pm 4.7 -0.8 3.8 94 0.4 WNW 22 32 12 17 - - 0.0
22/06:30pm 4.9 -0.7 3.7 92 0.5 NW 22 32 12 17 - - 0.0
22/06:00pm 5.0 -1.3 3.7 91 0.6 NW 26 35 14 19 - - 0.0
22/05:40pm 5.0 -1.7 3.8 92 0.5 NW 28 46 15 25 - - 0.0
22/05:30pm 5.0 -1.3 3.8 92 0.5 NW 26 39 14 21 - - 0.0
22/05:00pm 5.2 -1.1 4.0 92 0.5 NW 26 37 14 20 - - 0.0
22/04:38pm 5.2 -1.4 4.0 92 0.5 NW 28 50 15 27 - - 0.0
22/04:30pm 5.1 -0.8 4.1 93 0.4 NW 24 35 13 19 - - 0.0
22/04:00pm 5.2 -0.7 4.0 92 0.5 NW 24 39 13 21 - - 0.0
22/03:30pm 5.3 -1.3 4.0 91 0.6 WNW 28 43 15 23 - - 0.0
22/03:18pm 5.3 -1.3 4.0 91 0.6 WNW 28 46 15 25 - - 0.0
22/03:00pm 5.2 -1.1 4.0 92 0.5 WNW 26 37 14 20 - - 0.0
22/02:30pm 5.3 -1.0 3.8 90 0.7 WNW 26 39 14 21 - - 0.0
22/02:03pm 5.1 -2.0 3.8 91 0.6 WNW 30 48 16 26 - - 0.0
22/02:00pm 5.1 -2.0 3.8 91 0.6 WNW 30 44 16 24 - - 0.0
22/01:58pm 5.1 -2.3 3.8 91 0.6 WNW 32 50 17 27 - - 0.0
22/01:30pm 5.2 -1.9 3.7 90 0.7 WNW 30 41 16 22 - - 0.0
22/01:00pm 5.6 -1.9 3.4 86 1.0 W 32 46 17 25 - - 0.0
22/12:35pm 5.7 -3.1 3.5 86 1.0 W 39 57 21 31 - - 0.0
22/12:30pm 5.9 -3.6 4.1 88 0.8 W 43 57 23 31 - - 0.0
22/12:06pm 5.2 -4.3 3.9 91 0.6 W 43 63 23 34 - - 0.0
22/12:00pm 5.3 -4.2 4.0 91 0.6 W 43 57 23 31 - - 0.0
22/11:32am 5.5 -4.3 3.5 87 0.9 W 44 67 24 36 - - 0.0
22/11:30am 5.6 -4.0 3.6 87 0.9 W 43 59 23 32 - - 0.0
22/11:00am 5.0 -4.2 3.7 91 0.6 W 41 59 22 32 - - 0.0
22/10:30am 5.2 -4.1 3.1 86 0.9 W 41 59 22 32 - - 0.0
22/10:29am 5.2 -4.1 3.1 86 0.9 W 41 59 22 32 - - 0.0
22/10:00am 4.4 -6.3 2.6 88 0.8 W 48 63 26 34 - - 0.0
22/09:30am 3.9 -8.0 2.4 90 0.6 W 54 72 29 39 - - 0.0
22/09:00am 3.6 -7.6 2.1 90 0.6 W 50 70 27 38 - - 0.0
22/08:30am 3.5 -7.8 1.5 87 0.8 W 50 69 27 37 - - 0.0
22/08:00am 2.5 -7.5 1.3 92 0.5 W 43 61 23 33 - - 0.0
22/07:30am 2.3 -7.3 1.3 93 0.4 W 41 52 22 28 - - 0.0
22/07:00am 2.1 -6.4 0.9 92 0.5 W 35 44 19 24 - - 0.0
22/06:30am 2.1 -6.8 0.6 90 0.6 W 37 50 20 27 - - 0.0
22/06:00am 1.9 -6.7 0.4 90 0.6 WNW 35 50 19 27 - - 0.0
22/05:30am 2.2 -8.4 0.6 89 0.6 WNW 46 65 25 35 - - 0.0
22/05:00am 2.1 -7.2 0.8 91 0.5 W 39 57 21 31 - - 0.0
22/04:30am 2.1 -6.4 0.9 92 0.5 WNW 35 46 19 25 - - 0.0
22/04:00am 2.1 -5.1 0.9 92 0.5 WNW 28 46 15 25 - - 0.0
22/03:59am 2.0 -5.2 0.8 92 0.5 WNW 28 46 15 25 - - 0.0
22/03:30am 2.1 -5.8 0.8 91 0.5 WNW 32 43 17 23 - - 0.0
22/03:00am 1.9 -6.1 0.6 91 0.5 WNW 32 44 17 24 - - 0.0
22/02:30am 1.9 -7.4 0.4 90 0.6 WNW 39 54 21 29 - - 0.0
22/02:00am 1.8 -7.1 0.6 92 0.5 WNW 37 50 20 27 - - 0.0
22/01:30am 1.5 -5.7 0.5 93 0.4 W 28 39 15 21 - - 0.0
22/01:00am 1.5 -6.1 0.6 94 0.4 WNW 30 35 16 19 - - 0.0
22/12:30am 1.6 -5.6 0.9 95 0.3 WNW 28 35 15 19 - - 0.0
22/12:00am 1.6 -4.8 0.7 94 0.4 WNW 24 30 13 16 - - 0.0
 
Date/Time
EST
Temp
°C
App
Temp
°C
Dew
Point
°C
Rel
Hum
%
Delta-T
°C
Wind Press
QNH
hPa
Press
MSL
hPa
Rain since
9am
mm
Dir  Spd
km/h
Gust
km/h
Spd
kts
Gust
kts
21/11:30pm 1.8 -6.2 0.6 92 0.5 WNW 32 44 17 24 - - 0.0
21/11:00pm 1.8 -5.8 0.6 92 0.5 WNW 30 39 16 21 - - 0.0
21/10:30pm 1.7 -6.3 0.2 90 0.6 WNW 32 39 17 21 - - 0.0
21/10:00pm 1.5 -5.4 0.3 92 0.5 W 26 41 14 22 - - 0.0
21/09:30pm 1.7 -5.5 0.4 91 0.5 WNW 28 32 15 17 - - 0.0
21/09:00pm 1.9 -4.2 0.6 91 0.5 WNW 22 28 12 15 - - 0.0
21/08:30pm 2.1 -4.3 0.8 91 0.5 WNW 24 32 13 17 - - 0.0
21/08:00pm 2.1 -3.5 0.9 92 0.5 WNW 20 26 11 14 - - 0.0
21/07:30pm 2.2 -3.8 1.0 92 0.5 W 22 30 12 16 - - 0.0
21/07:00pm 2.3 -4.9 0.8 90 0.6 W 28 35 15 19 - - 0.0
21/06:30pm 2.4 -4.0 1.1 91 0.5 W 24 32 13 17 - - 0.0
21/06:00pm 2.6 -3.0 1.1 90 0.6 W 20 26 11 14 - - 0.0
21/05:30pm 2.9 -1.3 1.6 91 0.5 W 13 20 7 11 - - 0.0
21/05:00pm 3.2 -2.1 1.6 89 0.7 W 19 28 10 15 - - 0.0
21/04:30pm 3.4 -1.1 1.9 90 0.6 W 15 20 8 11 - - 0.0
21/04:00pm 3.5 -1.4 1.7 88 0.7 W 17 24 9 13 - - 0.0
21/03:30pm 4.0 -0.5 2.4 89 0.7 W 15 24 8 13 - - 0.0
21/03:00pm 4.1 -0.8 2.3 88 0.8 W 17 28 9 15 - - 0.0

Other Formats:

Comma delimited format used in spreadsheet applications
http://www.bom.gov.au/fwo/IDT60801/IDT60801.94977.axf

JavaScript Object Notation format (JSON) in row-major order
http://www.bom.gov.au/fwo/IDT60801/IDT60801.94977.json